sensor_id;sensor_type;location;lat;lon;timestamp;P1;durP1;ratioP1;P2;durP2;ratioP2
13687;SDS011;6916;51.504;7.416;2022-08-19T00:01:18;7.35;;;6.65;;
13687;SDS011;6916;51.504;7.416;2022-08-19T00:06:41;8.63;;;7.15;;
13687;SDS011;6916;51.504;7.416;2022-08-19T00:12:04;9.25;;;7.55;;
13687;SDS011;6916;51.504;7.416;2022-08-19T00:17:27;8.10;;;7.40;;
13687;SDS011;6916;51.504;7.416;2022-08-19T00:22:49;9.65;;;8.07;;
13687;SDS011;6916;51.504;7.416;2022-08-19T00:28:11;10.40;;;8.00;;
13687;SDS011;6916;51.504;7.416;2022-08-19T00:33:34;8.93;;;8.02;;
13687;SDS011;6916;51.504;7.416;2022-08-19T00:38:56;9.45;;;7.93;;
13687;SDS011;6916;51.504;7.416;2022-08-19T00:44:20;9.25;;;8.27;;
13687;SDS011;6916;51.504;7.416;2022-08-19T00:49:45;10.38;;;9.27;;
13687;SDS011;6916;51.504;7.416;2022-08-19T00:55:18;9.07;;;8.27;;
13687;SDS011;6916;51.504;7.416;2022-08-19T01:00:44;10.95;;;8.45;;
13687;SDS011;6916;51.504;7.416;2022-08-19T01:06:07;10.27;;;8.15;;
13687;SDS011;6916;51.504;7.416;2022-08-19T01:11:30;9.85;;;8.95;;
13687;SDS011;6916;51.504;7.416;2022-08-19T01:16:53;11.70;;;8.32;;
13687;SDS011;6916;51.504;7.416;2022-08-19T01:27:46;9.88;;;8.73;;
13687;SDS011;6916;51.504;7.416;2022-08-19T01:33:09;10.38;;;9.55;;
13687;SDS011;6916;51.504;7.416;2022-08-19T01:38:34;11.10;;;8.80;;
13687;SDS011;6916;51.504;7.416;2022-08-19T01:43:59;10.45;;;9.48;;
13687;SDS011;6916;51.504;7.416;2022-08-19T01:49:25;12.35;;;9.38;;
13687;SDS011;6916;51.504;7.416;2022-08-19T01:54:48;10.67;;;9.60;;
13687;SDS011;6916;51.504;7.416;2022-08-19T02:00:11;10.73;;;9.63;;
13687;SDS011;6916;51.504;7.416;2022-08-19T02:05:35;10.77;;;9.80;;
13687;SDS011;6916;51.504;7.416;2022-08-19T02:10:58;11.48;;;10.38;;
13687;SDS011;6916;51.504;7.416;2022-08-19T02:16:21;11.57;;;9.48;;
13687;SDS011;6916;51.504;7.416;2022-08-19T02:21:43;10.57;;;9.43;;
13687;SDS011;6916;51.504;7.416;2022-08-19T02:27:05;11.48;;;9.27;;
13687;SDS011;6916;51.504;7.416;2022-08-19T02:32:28;10.52;;;9.43;;
13687;SDS011;6916;51.504;7.416;2022-08-19T02:37:53;10.80;;;9.52;;
13687;SDS011;6916;51.504;7.416;2022-08-19T02:43:33;10.50;;;9.00;;
13687;SDS011;6916;51.504;7.416;2022-08-19T02:49:01;10.88;;;9.80;;
13687;SDS011;6916;51.504;7.416;2022-08-19T02:54:25;9.17;;;8.37;;
13687;SDS011;6916;51.504;7.416;2022-08-19T02:59:47;10.50;;;9.47;;
13687;SDS011;6916;51.504;7.416;2022-08-19T03:05:10;11.37;;;9.70;;
13687;SDS011;6916;51.504;7.416;2022-08-19T03:10:32;11.13;;;10.05;;
13687;SDS011;6916;51.504;7.416;2022-08-19T03:15:54;11.50;;;10.10;;
13687;SDS011;6916;51.504;7.416;2022-08-19T03:21:20;12.95;;;9.43;;
13687;SDS011;6916;51.504;7.416;2022-08-19T03:26:47;11.23;;;10.13;;
13687;SDS011;6916;51.504;7.416;2022-08-19T03:32:10;11.47;;;9.53;;
13687;SDS011;6916;51.504;7.416;2022-08-19T03:37:33;14.68;;;10.88;;
13687;SDS011;6916;51.504;7.416;2022-08-19T03:42:56;13.30;;;11.90;;
13687;SDS011;6916;51.504;7.416;2022-08-19T03:48:18;12.57;;;11.27;;
13687;SDS011;6916;51.504;7.416;2022-08-19T03:53:41;12.10;;;10.90;;
13687;SDS011;6916;51.504;7.416;2022-08-19T03:59:03;11.65;;;10.55;;
13687;SDS011;6916;51.504;7.416;2022-08-19T04:04:27;12.30;;;11.10;;
13687;SDS011;6916;51.504;7.416;2022-08-19T04:09:50;13.73;;;11.23;;
13687;SDS011;6916;51.504;7.416;2022-08-19T04:15:13;14.43;;;13.13;;
13687;SDS011;6916;51.504;7.416;2022-08-19T04:20:43;14.70;;;12.50;;
13687;SDS011;6916;51.504;7.416;2022-08-19T04:26:11;12.73;;;11.52;;
13687;SDS011;6916;51.504;7.416;2022-08-19T04:31:35;12.07;;;10.35;;
13687;SDS011;6916;51.504;7.416;2022-08-19T04:36:58;12.13;;;10.57;;
13687;SDS011;6916;51.504;7.416;2022-08-19T04:42:20;14.20;;;12.67;;
13687;SDS011;6916;51.504;7.416;2022-08-19T04:48:01;13.50;;;12.23;;
13687;SDS011;6916;51.504;7.416;2022-08-19T04:53:24;15.23;;;13.70;;
13687;SDS011;6916;51.504;7.416;2022-08-19T04:58:48;13.13;;;11.77;;
13687;SDS011;6916;51.504;7.416;2022-08-19T05:04:13;15.07;;;13.47;;
13687;SDS011;6916;51.504;7.416;2022-08-19T05:09:35;16.58;;;14.90;;
13687;SDS011;6916;51.504;7.416;2022-08-19T05:14:57;21.67;;;14.70;;
13687;SDS011;6916;51.504;7.416;2022-08-19T05:20:20;17.02;;;15.23;;
13687;SDS011;6916;51.504;7.416;2022-08-19T05:26:01;18.90;;;16.58;;
13687;SDS011;6916;51.504;7.416;2022-08-19T05:31:23;25.57;;;18.73;;
13687;SDS011;6916;51.504;7.416;2022-08-19T05:36:45;25.55;;;19.08;;
13687;SDS011;6916;51.504;7.416;2022-08-19T05:42:09;27.63;;;20.13;;
13687;SDS011;6916;51.504;7.416;2022-08-19T05:47:33;27.50;;;18.00;;
13687;SDS011;6916;51.504;7.416;2022-08-19T05:52:55;18.73;;;15.45;;
13687;SDS011;6916;51.504;7.416;2022-08-19T05:58:17;21.60;;;19.03;;
13687;SDS011;6916;51.504;7.416;2022-08-19T06:03:39;22.13;;;19.17;;
13687;SDS011;6916;51.504;7.416;2022-08-19T06:09:06;22.23;;;19.07;;
13687;SDS011;6916;51.504;7.416;2022-08-19T06:14:30;45.60;;;18.75;;
13687;SDS011;6916;51.504;7.416;2022-08-19T06:19:53;36.58;;;19.65;;
13687;SDS011;6916;51.504;7.416;2022-08-19T06:25:16;27.33;;;17.80;;
13687;SDS011;6916;51.504;7.416;2022-08-19T06:30:38;22.67;;;19.10;;
13687;SDS011;6916;51.504;7.416;2022-08-19T06:36:00;20.55;;;17.88;;
13687;SDS011;6916;51.504;7.416;2022-08-19T06:41:23;23.70;;;19.63;;
13687;SDS011;6916;51.504;7.416;2022-08-19T06:46:51;25.08;;;19.90;;
13687;SDS011;6916;51.504;7.416;2022-08-19T06:52:14;26.08;;;20.45;;
13687;SDS011;6916;51.504;7.416;2022-08-19T06:57:36;24.05;;;20.42;;
13687;SDS011;6916;51.504;7.416;2022-08-19T07:02:58;25.48;;;20.50;;
13687;SDS011;6916;51.504;7.416;2022-08-19T07:08:20;25.33;;;19.67;;
13687;SDS011;6916;51.504;7.416;2022-08-19T07:13:36;23.20;;;17.45;;
13687;SDS011;6916;51.504;7.416;2022-08-19T07:18:59;19.48;;;17.45;;
13687;SDS011;6916;51.504;7.416;2022-08-19T07:24:22;20.95;;;17.35;;
13687;SDS011;6916;51.504;7.416;2022-08-19T07:29:45;22.58;;;17.65;;
13687;SDS011;6916;51.504;7.416;2022-08-19T07:35:08;24.05;;;16.83;;
13687;SDS011;6916;51.504;7.416;2022-08-19T07:40:31;24.52;;;18.23;;
13687;SDS011;6916;51.504;7.416;2022-08-19T07:45:54;20.05;;;16.33;;
13687;SDS011;6916;51.504;7.416;2022-08-19T07:51:08;21.98;;;16.60;;
13687;SDS011;6916;51.504;7.416;2022-08-19T07:56:31;18.95;;;14.77;;
13687;SDS011;6916;51.504;7.416;2022-08-19T08:01:54;17.40;;;14.70;;
13687;SDS011;6916;51.504;7.416;2022-08-19T08:07:17;22.10;;;13.68;;
13687;SDS011;6916;51.504;7.416;2022-08-19T08:12:57;18.65;;;13.65;;
13687;SDS011;6916;51.504;7.416;2022-08-19T08:18:20;15.77;;;13.05;;
13687;SDS011;6916;51.504;7.416;2022-08-19T08:23:42;13.23;;;10.00;;
13687;SDS011;6916;51.504;7.416;2022-08-19T08:28:58;13.48;;;10.93;;
13687;SDS011;6916;51.504;7.416;2022-08-19T08:34:21;16.00;;;11.55;;
13687;SDS011;6916;51.504;7.416;2022-08-19T08:39:43;12.75;;;11.25;;
13687;SDS011;6916;51.504;7.416;2022-08-19T08:45:06;13.35;;;10.82;;
13687;SDS011;6916;51.504;7.416;2022-08-19T08:50:39;16.08;;;12.20;;
13687;SDS011;6916;51.504;7.416;2022-08-19T08:56:04;15.30;;;12.93;;
13687;SDS011;6916;51.504;7.416;2022-08-19T09:01:28;13.93;;;12.38;;
13687;SDS011;6916;51.504;7.416;2022-08-19T09:07:11;14.55;;;13.07;;
13687;SDS011;6916;51.504;7.416;2022-08-19T09:18:48;20.63;;;14.82;;
13687;SDS011;6916;51.504;7.416;2022-08-19T09:24:14;13.80;;;12.25;;
13687;SDS011;6916;51.504;7.416;2022-08-19T09:29:37;15.88;;;14.27;;
13687;SDS011;6916;51.504;7.416;2022-08-19T09:34:59;14.45;;;13.05;;
13687;SDS011;6916;51.504;7.416;2022-08-19T09:40:22;15.50;;;11.77;;
13687;SDS011;6916;51.504;7.416;2022-08-19T09:45:44;21.05;;;14.13;;
13687;SDS011;6916;51.504;7.416;2022-08-19T09:51:13;17.15;;;15.18;;
13687;SDS011;6916;51.504;7.416;2022-08-19T09:56:39;18.17;;;15.48;;
13687;SDS011;6916;51.504;7.416;2022-08-19T10:02:01;21.88;;;19.55;;
13687;SDS011;6916;51.504;7.416;2022-08-19T10:07:23;24.40;;;21.92;;
13687;SDS011;6916;51.504;7.416;2022-08-19T10:12:46;16.67;;;14.88;;
13687;SDS011;6916;51.504;7.416;2022-08-19T10:18:09;14.95;;;12.68;;
13687;SDS011;6916;51.504;7.416;2022-08-19T10:23:31;13.57;;;12.30;;
13687;SDS011;6916;51.504;7.416;2022-08-19T10:28:53;11.45;;;10.32;;
13687;SDS011;6916;51.504;7.416;2022-08-19T10:34:16;10.38;;;9.38;;
13687;SDS011;6916;51.504;7.416;2022-08-19T10:39:39;15.55;;;14.00;;
13687;SDS011;6916;51.504;7.416;2022-08-19T10:45:01;14.95;;;13.40;;
13687;SDS011;6916;51.504;7.416;2022-08-19T10:50:24;12.27;;;11.07;;
13687;SDS011;6916;51.504;7.416;2022-08-19T10:56:04;9.85;;;8.10;;
13687;SDS011;6916;51.504;7.416;2022-08-19T11:01:45;12.82;;;10.10;;
13687;SDS011;6916;51.504;7.416;2022-08-19T11:07:07;9.55;;;7.15;;
13687;SDS011;6916;51.504;7.416;2022-08-19T11:12:30;8.82;;;7.82;;
13687;SDS011;6916;51.504;7.416;2022-08-19T11:17:52;11.05;;;9.95;;
13687;SDS011;6916;51.504;7.416;2022-08-19T11:23:15;12.88;;;11.50;;
13687;SDS011;6916;51.504;7.416;2022-08-19T11:28:38;11.38;;;10.32;;
13687;SDS011;6916;51.504;7.416;2022-08-19T11:34:01;8.10;;;7.40;;
13687;SDS011;6916;51.504;7.416;2022-08-19T11:39:26;9.50;;;7.38;;
13687;SDS011;6916;51.504;7.416;2022-08-19T11:44:49;6.47;;;5.50;;
13687;SDS011;6916;51.504;7.416;2022-08-19T11:50:11;8.68;;;7.90;;
13687;SDS011;6916;51.504;7.416;2022-08-19T11:55:36;14.65;;;13.10;;
13687;SDS011;6916;51.504;7.416;2022-08-19T12:01:00;18.95;;;17.02;;
13687;SDS011;6916;51.504;7.416;2022-08-19T12:06:27;18.08;;;16.20;;
13687;SDS011;6916;51.504;7.416;2022-08-19T12:11:51;20.08;;;17.83;;
13687;SDS011;6916;51.504;7.416;2022-08-19T12:17:13;20.30;;;18.17;;
13687;SDS011;6916;51.504;7.416;2022-08-19T12:22:39;17.70;;;15.85;;
13687;SDS011;6916;51.504;7.416;2022-08-19T12:28:02;16.48;;;14.80;;
13687;SDS011;6916;51.504;7.416;2022-08-19T12:33:25;14.07;;;12.60;;
13687;SDS011;6916;51.504;7.416;2022-08-19T12:38:49;13.65;;;12.35;;
13687;SDS011;6916;51.504;7.416;2022-08-19T12:44:12;12.73;;;10.93;;
13687;SDS011;6916;51.504;7.416;2022-08-19T12:49:34;16.23;;;14.75;;
13687;SDS011;6916;51.504;7.416;2022-08-19T12:54:58;17.30;;;13.68;;
13687;SDS011;6916;51.504;7.416;2022-08-19T13:00:20;15.35;;;13.85;;
13687;SDS011;6916;51.504;7.416;2022-08-19T13:05:43;16.05;;;14.52;;
13687;SDS011;6916;51.504;7.416;2022-08-19T13:11:06;14.15;;;12.85;;
13687;SDS011;6916;51.504;7.416;2022-08-19T13:16:35;15.82;;;12.45;;
13687;SDS011;6916;51.504;7.416;2022-08-19T13:21:57;10.57;;;9.60;;
13687;SDS011;6916;51.504;7.416;2022-08-19T13:27:20;9.20;;;8.32;;
13687;SDS011;6916;51.504;7.416;2022-08-19T13:32:42;8.20;;;7.43;;
13687;SDS011;6916;51.504;7.416;2022-08-19T13:38:23;8.50;;;6.75;;
13687;SDS011;6916;51.504;7.416;2022-08-19T13:43:45;7.38;;;6.45;;
13687;SDS011;6916;51.504;7.416;2022-08-19T13:49:08;8.38;;;7.55;;
13687;SDS011;6916;51.504;7.416;2022-08-19T13:54:30;7.50;;;6.72;;
13687;SDS011;6916;51.504;7.416;2022-08-19T13:59:52;6.47;;;5.97;;
13687;SDS011;6916;51.504;7.416;2022-08-19T14:05:15;6.93;;;5.90;;
13687;SDS011;6916;51.504;7.416;2022-08-19T14:10:38;7.07;;;6.05;;
13687;SDS011;6916;51.504;7.416;2022-08-19T14:16:00;8.27;;;7.40;;
13687;SDS011;6916;51.504;7.416;2022-08-19T14:21:23;8.60;;;7.53;;
13687;SDS011;6916;51.504;7.416;2022-08-19T14:26:46;8.05;;;7.05;;
13687;SDS011;6916;51.504;7.416;2022-08-19T14:32:08;6.68;;;5.80;;
13687;SDS011;6916;51.504;7.416;2022-08-19T14:37:31;10.25;;;6.07;;
13687;SDS011;6916;51.504;7.416;2022-08-19T14:42:56;7.25;;;6.60;;
13687;SDS011;6916;51.504;7.416;2022-08-19T14:48:21;7.03;;;6.22;;
13687;SDS011;6916;51.504;7.416;2022-08-19T14:53:46;6.45;;;5.57;;
13687;SDS011;6916;51.504;7.416;2022-08-19T14:59:11;6.00;;;5.28;;
13687;SDS011;6916;51.504;7.416;2022-08-19T15:04:34;7.50;;;5.57;;
13687;SDS011;6916;51.504;7.416;2022-08-19T15:09:58;8.30;;;5.13;;
13687;SDS011;6916;51.504;7.416;2022-08-19T15:15:25;7.95;;;5.65;;
13687;SDS011;6916;51.504;7.416;2022-08-19T15:20:48;7.18;;;4.78;;
13687;SDS011;6916;51.504;7.416;2022-08-19T15:26:11;5.38;;;4.50;;
13687;SDS011;6916;51.504;7.416;2022-08-19T15:31:33;6.47;;;4.18;;
13687;SDS011;6916;51.504;7.416;2022-08-19T15:36:57;5.53;;;4.03;;
13687;SDS011;6916;51.504;7.416;2022-08-19T15:42:20;5.05;;;4.60;;
13687;SDS011;6916;51.504;7.416;2022-08-19T15:47:43;6.65;;;4.18;;
13687;SDS011;6916;51.504;7.416;2022-08-19T15:53:06;5.40;;;4.35;;
13687;SDS011;6916;51.504;7.416;2022-08-19T15:58:30;6.50;;;4.45;;
13687;SDS011;6916;51.504;7.416;2022-08-19T16:04:11;6.63;;;4.60;;
13687;SDS011;6916;51.504;7.416;2022-08-19T16:09:52;6.70;;;5.85;;
13687;SDS011;6916;51.504;7.416;2022-08-19T16:15:14;6.13;;;5.53;;
13687;SDS011;6916;51.504;7.416;2022-08-19T16:20:36;7.55;;;6.35;;
13687;SDS011;6916;51.504;7.416;2022-08-19T16:25:59;8.60;;;6.30;;
13687;SDS011;6916;51.504;7.416;2022-08-19T16:31:24;9.93;;;7.63;;
13687;SDS011;6916;51.504;7.416;2022-08-19T16:36:46;10.10;;;8.20;;
13687;SDS011;6916;51.504;7.416;2022-08-19T16:42:09;8.45;;;7.70;;
13687;SDS011;6916;51.504;7.416;2022-08-19T16:47:32;8.52;;;7.60;;
13687;SDS011;6916;51.504;7.416;2022-08-19T16:52:54;10.80;;;7.28;;
13687;SDS011;6916;51.504;7.416;2022-08-19T16:58:20;11.88;;;7.45;;
13687;SDS011;6916;51.504;7.416;2022-08-19T17:03:46;8.25;;;7.40;;
13687;SDS011;6916;51.504;7.416;2022-08-19T17:09:10;8.65;;;6.25;;
13687;SDS011;6916;51.504;7.416;2022-08-19T17:14:32;8.70;;;6.57;;
13687;SDS011;6916;51.504;7.416;2022-08-19T17:19:57;8.90;;;7.97;;
13687;SDS011;6916;51.504;7.416;2022-08-19T17:25:20;8.70;;;6.85;;
13687;SDS011;6916;51.504;7.416;2022-08-19T17:30:43;8.43;;;7.53;;
13687;SDS011;6916;51.504;7.416;2022-08-19T17:36:06;8.48;;;7.53;;
13687;SDS011;6916;51.504;7.416;2022-08-19T17:41:28;10.85;;;8.30;;
13687;SDS011;6916;51.504;7.416;2022-08-19T17:46:52;10.55;;;7.93;;
13687;SDS011;6916;51.504;7.416;2022-08-19T17:52:14;12.15;;;8.85;;
13687;SDS011;6916;51.504;7.416;2022-08-19T17:57:37;14.90;;;9.18;;
13687;SDS011;6916;51.504;7.416;2022-08-19T18:03:03;11.18;;;9.50;;
13687;SDS011;6916;51.504;7.416;2022-08-19T18:08:26;11.80;;;8.93;;
13687;SDS011;6916;51.504;7.416;2022-08-19T18:13:49;10.45;;;8.95;;
13687;SDS011;6916;51.504;7.416;2022-08-19T18:19:11;11.38;;;8.43;;
13687;SDS011;6916;51.504;7.416;2022-08-19T18:24:36;10.57;;;8.93;;
13687;SDS011;6916;51.504;7.416;2022-08-19T18:29:59;9.98;;;8.18;;
13687;SDS011;6916;51.504;7.416;2022-08-19T18:35:23;12.95;;;8.77;;
13687;SDS011;6916;51.504;7.416;2022-08-19T18:40:50;13.07;;;8.93;;
13687;SDS011;6916;51.504;7.416;2022-08-19T18:46:31;12.40;;;9.15;;
13687;SDS011;6916;51.504;7.416;2022-08-19T18:52:12;11.02;;;8.90;;
13687;SDS011;6916;51.504;7.416;2022-08-19T18:57:34;11.13;;;8.85;;
13687;SDS011;6916;51.504;7.416;2022-08-19T19:02:56;9.23;;;8.20;;
13687;SDS011;6916;51.504;7.416;2022-08-19T19:08:19;10.52;;;7.65;;
13687;SDS011;6916;51.504;7.416;2022-08-19T19:13:41;8.10;;;7.25;;
13687;SDS011;6916;51.504;7.416;2022-08-19T19:19:07;8.85;;;7.68;;
13687;SDS011;6916;51.504;7.416;2022-08-19T19:24:33;10.00;;;7.85;;
13687;SDS011;6916;51.504;7.416;2022-08-19T19:29:58;12.25;;;7.90;;
13687;SDS011;6916;51.504;7.416;2022-08-19T19:35:20;11.60;;;9.25;;
13687;SDS011;6916;51.504;7.416;2022-08-19T19:40:42;10.52;;;8.80;;
13687;SDS011;6916;51.504;7.416;2022-08-19T19:46:04;13.77;;;9.80;;
13687;SDS011;6916;51.504;7.416;2022-08-19T19:51:27;14.50;;;10.98;;
13687;SDS011;6916;51.504;7.416;2022-08-19T19:56:49;14.88;;;12.63;;
13687;SDS011;6916;51.504;7.416;2022-08-19T20:02:11;17.63;;;12.98;;
13687;SDS011;6916;51.504;7.416;2022-08-19T20:07:37;16.17;;;13.10;;
13687;SDS011;6916;51.504;7.416;2022-08-19T20:13:18;14.00;;;10.93;;
13687;SDS011;6916;51.504;7.416;2022-08-19T20:18:40;12.63;;;11.32;;
13687;SDS011;6916;51.504;7.416;2022-08-19T20:24:04;11.80;;;9.65;;
13687;SDS011;6916;51.504;7.416;2022-08-19T20:29:27;11.55;;;9.45;;
13687;SDS011;6916;51.504;7.416;2022-08-19T20:34:50;13.80;;;10.35;;
13687;SDS011;6916;51.504;7.416;2022-08-19T20:40:12;11.52;;;9.57;;
13687;SDS011;6916;51.504;7.416;2022-08-19T20:45:35;11.50;;;9.00;;
13687;SDS011;6916;51.504;7.416;2022-08-19T20:50:59;10.90;;;9.55;;
13687;SDS011;6916;51.504;7.416;2022-08-19T20:56:21;13.23;;;10.52;;
13687;SDS011;6916;51.504;7.416;2022-08-19T21:01:43;12.00;;;10.23;;
13687;SDS011;6916;51.504;7.416;2022-08-19T21:07:05;13.13;;;8.98;;
13687;SDS011;6916;51.504;7.416;2022-08-19T21:12:29;12.18;;;9.90;;
13687;SDS011;6916;51.504;7.416;2022-08-19T21:17:51;12.00;;;10.25;;
13687;SDS011;6916;51.504;7.416;2022-08-19T21:23:15;11.75;;;9.45;;
13687;SDS011;6916;51.504;7.416;2022-08-19T21:28:40;10.35;;;9.30;;
13687;SDS011;6916;51.504;7.416;2022-08-19T21:34:02;13.88;;;10.63;;
13687;SDS011;6916;51.504;7.416;2022-08-19T21:39:24;10.65;;;9.48;;
13687;SDS011;6916;51.504;7.416;2022-08-19T21:44:47;11.00;;;9.32;;
13687;SDS011;6916;51.504;7.416;2022-08-19T21:50:09;12.55;;;10.63;;
13687;SDS011;6916;51.504;7.416;2022-08-19T21:55:32;12.27;;;9.80;;
13687;SDS011;6916;51.504;7.416;2022-08-19T22:00:54;12.07;;;9.98;;
13687;SDS011;6916;51.504;7.416;2022-08-19T22:06:16;10.35;;;9.27;;
13687;SDS011;6916;51.504;7.416;2022-08-19T22:11:39;12.93;;;8.80;;
13687;SDS011;6916;51.504;7.416;2022-08-19T22:17:02;9.55;;;8.50;;
13687;SDS011;6916;51.504;7.416;2022-08-19T22:22:29;9.65;;;8.13;;
13687;SDS011;6916;51.504;7.416;2022-08-19T22:27:53;10.68;;;8.05;;
13687;SDS011;6916;51.504;7.416;2022-08-19T22:33:16;9.55;;;8.18;;
13687;SDS011;6916;51.504;7.416;2022-08-19T22:38:39;9.95;;;8.65;;
13687;SDS011;6916;51.504;7.416;2022-08-19T22:44:01;9.98;;;8.52;;
13687;SDS011;6916;51.504;7.416;2022-08-19T22:49:24;8.10;;;7.30;;
13687;SDS011;6916;51.504;7.416;2022-08-19T22:54:49;8.27;;;7.47;;
13687;SDS011;6916;51.504;7.416;2022-08-19T23:00:13;12.60;;;9.20;;
13687;SDS011;6916;51.504;7.416;2022-08-19T23:05:35;11.27;;;9.20;;
13687;SDS011;6916;51.504;7.416;2022-08-19T23:10:57;11.88;;;10.10;;
13687;SDS011;6916;51.504;7.416;2022-08-19T23:16:20;11.57;;;9.15;;
13687;SDS011;6916;51.504;7.416;2022-08-19T23:21:42;12.98;;;10.27;;
13687;SDS011;6916;51.504;7.416;2022-08-19T23:27:04;12.77;;;9.63;;
13687;SDS011;6916;51.504;7.416;2022-08-19T23:32:45;15.10;;;10.60;;
13687;SDS011;6916;51.504;7.416;2022-08-19T23:38:07;14.93;;;11.77;;
13687;SDS011;6916;51.504;7.416;2022-08-19T23:43:30;13.93;;;11.23;;
13687;SDS011;6916;51.504;7.416;2022-08-19T23:48:52;13.35;;;11.20;;
13687;SDS011;6916;51.504;7.416;2022-08-19T23:54:16;14.18;;;10.55;;
13687;SDS011;6916;51.504;7.416;2022-08-19T23:59:38;16.45;;;12.63;;
